sensor_id;sensor_type;location;lat;lon;timestamp;P1;durP1;ratioP1;P2;durP2;ratioP2
4686;SDS011;2357;47.316;-1.348;2022-08-27T00:01:48;3.57;;;1.50;;
4686;SDS011;2357;47.316;-1.348;2022-08-27T00:04:13;4.40;;;1.43;;
4686;SDS011;2357;47.316;-1.348;2022-08-27T00:06:39;8.10;;;1.63;;
4686;SDS011;2357;47.316;-1.348;2022-08-27T00:09:05;4.00;;;1.10;;
4686;SDS011;2357;47.316;-1.348;2022-08-27T00:11:30;8.10;;;1.10;;
4686;SDS011;2357;47.316;-1.348;2022-08-27T00:13:56;8.03;;;1.30;;
4686;SDS011;2357;47.316;-1.348;2022-08-27T00:16:22;3.47;;;1.03;;
4686;SDS011;2357;47.316;-1.348;2022-08-27T00:18:48;2.60;;;0.90;;
4686;SDS011;2357;47.316;-1.348;2022-08-27T00:21:15;2.40;;;0.90;;
4686;SDS011;2357;47.316;-1.348;2022-08-27T00:23:41;15.00;;;1.70;;
4686;SDS011;2357;47.316;-1.348;2022-08-27T00:26:07;4.40;;;1.20;;
4686;SDS011;2357;47.316;-1.348;2022-08-27T00:28:34;1.87;;;1.00;;
4686;SDS011;2357;47.316;-1.348;2022-08-27T00:31:00;5.80;;;1.57;;
4686;SDS011;2357;47.316;-1.348;2022-08-27T00:33:26;6.10;;;1.23;;
4686;SDS011;2357;47.316;-1.348;2022-08-27T00:35:52;6.10;;;1.23;;
4686;SDS011;2357;47.316;-1.348;2022-08-27T00:38:19;3.80;;;1.20;;
4686;SDS011;2357;47.316;-1.348;2022-08-27T00:40:45;3.37;;;1.27;;
4686;SDS011;2357;47.316;-1.348;2022-08-27T00:43:12;5.13;;;1.00;;
4686;SDS011;2357;47.316;-1.348;2022-08-27T00:45:39;9.00;;;1.97;;
4686;SDS011;2357;47.316;-1.348;2022-08-27T00:48:09;4.33;;;1.13;;
4686;SDS011;2357;47.316;-1.348;2022-08-27T00:50:41;5.17;;;1.43;;
4686;SDS011;2357;47.316;-1.348;2022-08-27T00:53:11;18.37;;;1.17;;
4686;SDS011;2357;47.316;-1.348;2022-08-27T00:55:41;4.30;;;1.00;;
4686;SDS011;2357;47.316;-1.348;2022-08-27T00:58:18;3.10;;;0.80;;
4686;SDS011;2357;47.316;-1.348;2022-08-27T01:00:49;5.30;;;1.10;;
4686;SDS011;2357;47.316;-1.348;2022-08-27T01:03:15;3.27;;;1.17;;
4686;SDS011;2357;47.316;-1.348;2022-08-27T01:05:41;6.10;;;1.20;;
4686;SDS011;2357;47.316;-1.348;2022-08-27T01:08:10;4.70;;;1.30;;
4686;SDS011;2357;47.316;-1.348;2022-08-27T01:10:42;2.83;;;1.40;;
4686;SDS011;2357;47.316;-1.348;2022-08-27T01:13:09;7.53;;;1.90;;
4686;SDS011;2357;47.316;-1.348;2022-08-27T01:15:39;3.53;;;1.40;;
4686;SDS011;2357;47.316;-1.348;2022-08-27T01:18:05;4.73;;;1.63;;
4686;SDS011;2357;47.316;-1.348;2022-08-27T01:20:48;3.43;;;1.27;;
4686;SDS011;2357;47.316;-1.348;2022-08-27T01:23:22;2.27;;;1.00;;
4686;SDS011;2357;47.316;-1.348;2022-08-27T01:25:52;3.07;;;1.37;;
4686;SDS011;2357;47.316;-1.348;2022-08-27T01:28:18;3.70;;;1.30;;
4686;SDS011;2357;47.316;-1.348;2022-08-27T01:30:46;10.53;;;1.47;;
4686;SDS011;2357;47.316;-1.348;2022-08-27T01:33:13;3.67;;;1.03;;
4686;SDS011;2357;47.316;-1.348;2022-08-27T01:35:41;6.73;;;1.73;;
4686;SDS011;2357;47.316;-1.348;2022-08-27T01:38:08;2.97;;;1.23;;
4686;SDS011;2357;47.316;-1.348;2022-08-27T01:40:35;4.57;;;1.40;;
4686;SDS011;2357;47.316;-1.348;2022-08-27T01:43:01;3.90;;;1.30;;
4686;SDS011;2357;47.316;-1.348;2022-08-27T01:45:29;4.23;;;1.10;;
4686;SDS011;2357;47.316;-1.348;2022-08-27T01:48:01;4.53;;;1.30;;
4686;SDS011;2357;47.316;-1.348;2022-08-27T01:50:28;4.50;;;1.77;;
4686;SDS011;2357;47.316;-1.348;2022-08-27T01:52:59;3.23;;;1.43;;
4686;SDS011;2357;47.316;-1.348;2022-08-27T01:55:30;7.10;;;1.43;;
4686;SDS011;2357;47.316;-1.348;2022-08-27T01:57:56;2.70;;;1.17;;
4686;SDS011;2357;47.316;-1.348;2022-08-27T02:00:23;3.33;;;1.20;;
4686;SDS011;2357;47.316;-1.348;2022-08-27T02:02:55;3.90;;;0.80;;
4686;SDS011;2357;47.316;-1.348;2022-08-27T02:05:21;9.57;;;1.47;;
4686;SDS011;2357;47.316;-1.348;2022-08-27T02:07:48;4.47;;;1.27;;
4686;SDS011;2357;47.316;-1.348;2022-08-27T02:10:16;6.30;;;2.13;;
4686;SDS011;2357;47.316;-1.348;2022-08-27T02:12:44;3.13;;;1.10;;
4686;SDS011;2357;47.316;-1.348;2022-08-27T02:15:10;3.13;;;1.37;;
4686;SDS011;2357;47.316;-1.348;2022-08-27T02:17:36;9.83;;;1.27;;
4686;SDS011;2357;47.316;-1.348;2022-08-27T02:20:03;4.13;;;1.40;;
4686;SDS011;2357;47.316;-1.348;2022-08-27T02:22:29;3.10;;;1.60;;
4686;SDS011;2357;47.316;-1.348;2022-08-27T02:24:55;6.70;;;1.67;;
4686;SDS011;2357;47.316;-1.348;2022-08-27T02:27:21;4.10;;;1.70;;
4686;SDS011;2357;47.316;-1.348;2022-08-27T02:29:47;4.10;;;1.37;;
4686;SDS011;2357;47.316;-1.348;2022-08-27T02:32:13;5.40;;;1.63;;
4686;SDS011;2357;47.316;-1.348;2022-08-27T02:34:39;13.33;;;1.10;;
4686;SDS011;2357;47.316;-1.348;2022-08-27T02:37:05;6.10;;;1.30;;
4686;SDS011;2357;47.316;-1.348;2022-08-27T02:39:31;5.07;;;1.67;;
4686;SDS011;2357;47.316;-1.348;2022-08-27T02:41:57;5.30;;;1.10;;
4686;SDS011;2357;47.316;-1.348;2022-08-27T02:44:23;5.30;;;1.30;;
4686;SDS011;2357;47.316;-1.348;2022-08-27T02:46:49;3.00;;;1.47;;
4686;SDS011;2357;47.316;-1.348;2022-08-27T02:49:15;5.20;;;1.30;;
4686;SDS011;2357;47.316;-1.348;2022-08-27T02:51:41;3.77;;;1.27;;
4686;SDS011;2357;47.316;-1.348;2022-08-27T02:54:07;4.80;;;1.37;;
4686;SDS011;2357;47.316;-1.348;2022-08-27T02:56:33;5.70;;;1.43;;
4686;SDS011;2357;47.316;-1.348;2022-08-27T02:58:59;4.73;;;1.67;;
4686;SDS011;2357;47.316;-1.348;2022-08-27T03:01:25;11.20;;;2.17;;
4686;SDS011;2357;47.316;-1.348;2022-08-27T03:03:51;3.60;;;2.30;;
4686;SDS011;2357;47.316;-1.348;2022-08-27T03:06:17;5.53;;;1.30;;
4686;SDS011;2357;47.316;-1.348;2022-08-27T03:08:43;5.57;;;1.50;;
4686;SDS011;2357;47.316;-1.348;2022-08-27T03:11:08;3.03;;;1.37;;
4686;SDS011;2357;47.316;-1.348;2022-08-27T03:13:37;12.03;;;2.07;;
4686;SDS011;2357;47.316;-1.348;2022-08-27T03:16:04;2.30;;;1.40;;
4686;SDS011;2357;47.316;-1.348;2022-08-27T03:18:30;6.63;;;1.60;;
4686;SDS011;2357;47.316;-1.348;2022-08-27T03:20:57;5.63;;;1.70;;
4686;SDS011;2357;47.316;-1.348;2022-08-27T03:23:25;12.17;;;1.70;;
4686;SDS011;2357;47.316;-1.348;2022-08-27T03:25:53;8.80;;;1.40;;
4686;SDS011;2357;47.316;-1.348;2022-08-27T03:28:25;9.03;;;2.40;;
4686;SDS011;2357;47.316;-1.348;2022-08-27T03:30:54;2.70;;;1.83;;
4686;SDS011;2357;47.316;-1.348;2022-08-27T03:33:25;5.70;;;1.87;;
4686;SDS011;2357;47.316;-1.348;2022-08-27T03:35:52;9.70;;;1.80;;
4686;SDS011;2357;47.316;-1.348;2022-08-27T03:38:18;8.03;;;1.40;;
4686;SDS011;2357;47.316;-1.348;2022-08-27T03:40:44;2.70;;;1.77;;
4686;SDS011;2357;47.316;-1.348;2022-08-27T03:43:10;4.27;;;1.27;;
4686;SDS011;2357;47.316;-1.348;2022-08-27T03:45:37;5.90;;;1.73;;
4686;SDS011;2357;47.316;-1.348;2022-08-27T03:48:03;11.10;;;2.10;;
4686;SDS011;2357;47.316;-1.348;2022-08-27T03:50:30;2.47;;;1.50;;
4686;SDS011;2357;47.316;-1.348;2022-08-27T03:52:57;4.70;;;1.40;;
4686;SDS011;2357;47.316;-1.348;2022-08-27T03:55:22;7.90;;;1.43;;
4686;SDS011;2357;47.316;-1.348;2022-08-27T03:57:48;2.77;;;1.40;;
4686;SDS011;2357;47.316;-1.348;2022-08-27T04:00:14;1.83;;;1.60;;
4686;SDS011;2357;47.316;-1.348;2022-08-27T04:02:40;7.60;;;1.60;;
4686;SDS011;2357;47.316;-1.348;2022-08-27T04:05:08;4.40;;;1.53;;
4686;SDS011;2357;47.316;-1.348;2022-08-27T04:07:35;6.00;;;2.43;;
4686;SDS011;2357;47.316;-1.348;2022-08-27T04:10:01;5.63;;;1.80;;
4686;SDS011;2357;47.316;-1.348;2022-08-27T04:12:27;9.23;;;2.00;;
4686;SDS011;2357;47.316;-1.348;2022-08-27T04:14:53;2.90;;;1.50;;
4686;SDS011;2357;47.316;-1.348;2022-08-27T04:17:19;4.30;;;2.07;;
4686;SDS011;2357;47.316;-1.348;2022-08-27T04:19:44;7.13;;;2.30;;
4686;SDS011;2357;47.316;-1.348;2022-08-27T04:22:10;5.03;;;1.63;;
4686;SDS011;2357;47.316;-1.348;2022-08-27T04:24:36;8.63;;;2.00;;
4686;SDS011;2357;47.316;-1.348;2022-08-27T04:27:03;7.00;;;1.43;;
4686;SDS011;2357;47.316;-1.348;2022-08-27T04:29:29;8.40;;;2.83;;
4686;SDS011;2357;47.316;-1.348;2022-08-27T04:31:55;5.00;;;2.13;;
4686;SDS011;2357;47.316;-1.348;2022-08-27T04:34:21;8.80;;;2.37;;
4686;SDS011;2357;47.316;-1.348;2022-08-27T04:36:47;5.13;;;2.00;;
4686;SDS011;2357;47.316;-1.348;2022-08-27T04:39:14;5.70;;;1.77;;
4686;SDS011;2357;47.316;-1.348;2022-08-27T04:41:40;5.87;;;2.10;;
4686;SDS011;2357;47.316;-1.348;2022-08-27T04:44:07;5.63;;;2.17;;
4686;SDS011;2357;47.316;-1.348;2022-08-27T04:46:35;3.87;;;1.67;;
4686;SDS011;2357;47.316;-1.348;2022-08-27T04:49:06;6.90;;;1.97;;
4686;SDS011;2357;47.316;-1.348;2022-08-27T04:51:35;14.73;;;2.87;;
4686;SDS011;2357;47.316;-1.348;2022-08-27T04:54:01;6.95;;;2.28;;
4686;SDS011;2357;47.316;-1.348;2022-08-27T04:56:28;8.43;;;1.90;;
4686;SDS011;2357;47.316;-1.348;2022-08-27T04:58:54;11.70;;;2.53;;
4686;SDS011;2357;47.316;-1.348;2022-08-27T05:01:22;4.20;;;1.77;;
4686;SDS011;2357;47.316;-1.348;2022-08-27T05:03:53;5.17;;;2.17;;
4686;SDS011;2357;47.316;-1.348;2022-08-27T05:06:19;9.07;;;2.47;;
4686;SDS011;2357;47.316;-1.348;2022-08-27T05:08:46;7.40;;;2.30;;
4686;SDS011;2357;47.316;-1.348;2022-08-27T05:11:14;5.40;;;2.20;;
4686;SDS011;2357;47.316;-1.348;2022-08-27T05:13:41;5.33;;;2.13;;
4686;SDS011;2357;47.316;-1.348;2022-08-27T05:16:09;9.03;;;2.20;;
4686;SDS011;2357;47.316;-1.348;2022-08-27T05:18:37;11.77;;;3.63;;
4686;SDS011;2357;47.316;-1.348;2022-08-27T05:21:04;7.60;;;2.53;;
4686;SDS011;2357;47.316;-1.348;2022-08-27T05:23:30;8.83;;;2.13;;
4686;SDS011;2357;47.316;-1.348;2022-08-27T05:25:56;6.77;;;2.13;;
4686;SDS011;2357;47.316;-1.348;2022-08-27T05:28:23;3.77;;;2.30;;
4686;SDS011;2357;47.316;-1.348;2022-08-27T05:30:52;12.70;;;3.93;;
4686;SDS011;2357;47.316;-1.348;2022-08-27T05:33:21;6.17;;;2.63;;
4686;SDS011;2357;47.316;-1.348;2022-08-27T05:35:49;6.73;;;3.07;;
4686;SDS011;2357;47.316;-1.348;2022-08-27T05:38:17;7.37;;;3.07;;
4686;SDS011;2357;47.316;-1.348;2022-08-27T05:40:43;6.13;;;2.30;;
4686;SDS011;2357;47.316;-1.348;2022-08-27T05:43:10;3.10;;;2.70;;
4686;SDS011;2357;47.316;-1.348;2022-08-27T05:45:43;8.50;;;3.43;;
4686;SDS011;2357;47.316;-1.348;2022-08-27T05:48:13;7.47;;;2.70;;
4686;SDS011;2357;47.316;-1.348;2022-08-27T05:50:40;6.73;;;3.67;;
4686;SDS011;2357;47.316;-1.348;2022-08-27T05:53:08;6.83;;;2.97;;
4686;SDS011;2357;47.316;-1.348;2022-08-27T05:55:36;7.10;;;2.73;;
4686;SDS011;2357;47.316;-1.348;2022-08-27T05:58:03;10.60;;;3.20;;
4686;SDS011;2357;47.316;-1.348;2022-08-27T06:00:29;6.33;;;2.47;;
4686;SDS011;2357;47.316;-1.348;2022-08-27T06:03:13;6.83;;;3.53;;
4686;SDS011;2357;47.316;-1.348;2022-08-27T06:05:39;11.30;;;2.83;;
4686;SDS011;2357;47.316;-1.348;2022-08-27T06:08:04;4.67;;;3.30;;
4686;SDS011;2357;47.316;-1.348;2022-08-27T06:10:30;7.03;;;2.70;;
4686;SDS011;2357;47.316;-1.348;2022-08-27T06:12:56;7.13;;;2.90;;
4686;SDS011;2357;47.316;-1.348;2022-08-27T06:15:22;10.30;;;3.38;;
4686;SDS011;2357;47.316;-1.348;2022-08-27T06:17:47;27.57;;;4.20;;
4686;SDS011;2357;47.316;-1.348;2022-08-27T06:20:13;8.37;;;3.10;;
4686;SDS011;2357;47.316;-1.348;2022-08-27T06:22:39;4.43;;;3.33;;
4686;SDS011;2357;47.316;-1.348;2022-08-27T06:25:04;8.47;;;3.20;;
4686;SDS011;2357;47.316;-1.348;2022-08-27T06:27:31;8.83;;;2.13;;
4686;SDS011;2357;47.316;-1.348;2022-08-27T06:29:57;6.60;;;3.20;;
4686;SDS011;2357;47.316;-1.348;2022-08-27T06:32:22;4.67;;;2.97;;
4686;SDS011;2357;47.316;-1.348;2022-08-27T06:34:49;11.17;;;3.00;;
4686;SDS011;2357;47.316;-1.348;2022-08-27T06:37:15;12.30;;;3.50;;
4686;SDS011;2357;47.316;-1.348;2022-08-27T06:39:41;9.20;;;3.23;;
4686;SDS011;2357;47.316;-1.348;2022-08-27T06:42:08;3.97;;;2.60;;
4686;SDS011;2357;47.316;-1.348;2022-08-27T06:44:36;16.30;;;4.23;;
4686;SDS011;2357;47.316;-1.348;2022-08-27T06:47:02;7.87;;;3.00;;
4686;SDS011;2357;47.316;-1.348;2022-08-27T06:49:28;8.03;;;3.53;;
4686;SDS011;2357;47.316;-1.348;2022-08-27T06:51:54;7.73;;;2.70;;
4686;SDS011;2357;47.316;-1.348;2022-08-27T06:54:19;6.10;;;3.03;;
4686;SDS011;2357;47.316;-1.348;2022-08-27T06:56:45;8.90;;;2.97;;
4686;SDS011;2357;47.316;-1.348;2022-08-27T06:59:13;12.83;;;3.60;;
4686;SDS011;2357;47.316;-1.348;2022-08-27T07:01:43;10.47;;;3.50;;
4686;SDS011;2357;47.316;-1.348;2022-08-27T07:04:12;12.17;;;4.20;;
4686;SDS011;2357;47.316;-1.348;2022-08-27T07:06:41;8.90;;;5.00;;
4686;SDS011;2357;47.316;-1.348;2022-08-27T07:09:07;9.20;;;4.23;;
4686;SDS011;2357;47.316;-1.348;2022-08-27T07:11:33;4.93;;;3.60;;
4686;SDS011;2357;47.316;-1.348;2022-08-27T07:13:59;4.30;;;2.60;;
4686;SDS011;2357;47.316;-1.348;2022-08-27T07:16:26;11.27;;;3.83;;
4686;SDS011;2357;47.316;-1.348;2022-08-27T07:18:54;6.30;;;3.47;;
4686;SDS011;2357;47.316;-1.348;2022-08-27T07:21:20;10.07;;;3.00;;
4686;SDS011;2357;47.316;-1.348;2022-08-27T07:23:48;6.20;;;3.33;;
4686;SDS011;2357;47.316;-1.348;2022-08-27T07:26:17;3.70;;;3.30;;
4686;SDS011;2357;47.316;-1.348;2022-08-27T07:28:45;8.40;;;3.73;;
4686;SDS011;2357;47.316;-1.348;2022-08-27T07:31:11;7.93;;;3.50;;
4686;SDS011;2357;47.316;-1.348;2022-08-27T07:33:39;9.50;;;3.87;;
4686;SDS011;2357;47.316;-1.348;2022-08-27T07:36:05;7.90;;;4.03;;
4686;SDS011;2357;47.316;-1.348;2022-08-27T07:38:32;9.20;;;4.00;;
4686;SDS011;2357;47.316;-1.348;2022-08-27T07:40:59;6.57;;;3.50;;
4686;SDS011;2357;47.316;-1.348;2022-08-27T07:43:28;6.93;;;3.43;;
4686;SDS011;2357;47.316;-1.348;2022-08-27T07:46:13;7.73;;;3.30;;
4686;SDS011;2357;47.316;-1.348;2022-08-27T07:48:38;6.00;;;3.50;;
4686;SDS011;2357;47.316;-1.348;2022-08-27T07:51:04;5.83;;;3.63;;
4686;SDS011;2357;47.316;-1.348;2022-08-27T07:53:36;9.90;;;3.33;;
4686;SDS011;2357;47.316;-1.348;2022-08-27T07:56:02;11.03;;;4.43;;
4686;SDS011;2357;47.316;-1.348;2022-08-27T07:58:29;6.10;;;2.53;;
4686;SDS011;2357;47.316;-1.348;2022-08-27T08:00:55;9.37;;;3.57;;
4686;SDS011;2357;47.316;-1.348;2022-08-27T08:03:21;12.23;;;4.17;;
4686;SDS011;2357;47.316;-1.348;2022-08-27T08:05:46;5.47;;;2.80;;
4686;SDS011;2357;47.316;-1.348;2022-08-27T08:08:13;6.03;;;3.73;;
4686;SDS011;2357;47.316;-1.348;2022-08-27T08:10:40;3.30;;;2.30;;
4686;SDS011;2357;47.316;-1.348;2022-08-27T08:13:06;3.80;;;2.60;;
4686;SDS011;2357;47.316;-1.348;2022-08-27T08:15:32;7.10;;;2.80;;
4686;SDS011;2357;47.316;-1.348;2022-08-27T08:17:58;4.33;;;3.00;;
4686;SDS011;2357;47.316;-1.348;2022-08-27T08:20:24;4.20;;;2.30;;
4686;SDS011;2357;47.316;-1.348;2022-08-27T08:22:49;3.47;;;2.47;;
4686;SDS011;2357;47.316;-1.348;2022-08-27T08:25:15;7.57;;;3.30;;
4686;SDS011;2357;47.316;-1.348;2022-08-27T08:27:41;6.80;;;2.67;;
4686;SDS011;2357;47.316;-1.348;2022-08-27T08:30:11;5.50;;;2.80;;
4686;SDS011;2357;47.316;-1.348;2022-08-27T08:32:36;7.57;;;2.47;;
4686;SDS011;2357;47.316;-1.348;2022-08-27T08:35:03;6.80;;;2.67;;
4686;SDS011;2357;47.316;-1.348;2022-08-27T08:37:29;8.57;;;2.00;;
4686;SDS011;2357;47.316;-1.348;2022-08-27T08:39:55;4.43;;;2.47;;
4686;SDS011;2357;47.316;-1.348;2022-08-27T08:45:10;7.43;;;2.90;;
4686;SDS011;2357;47.316;-1.348;2022-08-27T08:47:42;2.30;;;2.10;;
4686;SDS011;2357;47.316;-1.348;2022-08-27T08:50:12;2.10;;;1.90;;
4686;SDS011;2357;47.316;-1.348;2022-08-27T08:57:55;4.10;;;1.80;;
4686;SDS011;2357;47.316;-1.348;2022-08-27T09:00:45;9.50;;;1.80;;
4686;SDS011;2357;47.316;-1.348;2022-08-27T09:03:17;17.10;;;3.40;;
4686;SDS011;2357;47.316;-1.348;2022-08-27T09:05:44;5.90;;;2.10;;
4686;SDS011;2357;47.316;-1.348;2022-08-27T09:08:15;3.33;;;1.73;;
4686;SDS011;2357;47.316;-1.348;2022-08-27T09:13:37;9.40;;;2.50;;
4686;SDS011;2357;47.316;-1.348;2022-08-27T09:16:07;43.20;;;6.30;;
4686;SDS011;2357;47.316;-1.348;2022-08-27T09:18:38;20.50;;;2.87;;
4686;SDS011;2357;47.316;-1.348;2022-08-27T09:24:06;3.00;;;1.60;;
4686;SDS011;2357;47.316;-1.348;2022-08-27T09:26:39;10.90;;;3.30;;
4686;SDS011;2357;47.316;-1.348;2022-08-27T09:29:09;4.73;;;1.40;;
4686;SDS011;2357;47.316;-1.348;2022-08-27T09:34:20;4.10;;;1.70;;
4686;SDS011;2357;47.316;-1.348;2022-08-27T09:37:09;1.53;;;1.30;;
4686;SDS011;2357;47.316;-1.348;2022-08-27T09:42:08;3.83;;;2.03;;
4686;SDS011;2357;47.316;-1.348;2022-08-27T09:45:07;2.93;;;1.80;;
4686;SDS011;2357;47.316;-1.348;2022-08-27T09:47:46;1.57;;;1.37;;
4686;SDS011;2357;47.316;-1.348;2022-08-27T09:50:20;6.20;;;1.57;;
4686;SDS011;2357;47.316;-1.348;2022-08-27T09:52:52;1.87;;;1.50;;
4686;SDS011;2357;47.316;-1.348;2022-08-27T09:55:34;3.13;;;1.37;;
4686;SDS011;2357;47.316;-1.348;2022-08-27T09:58:18;7.93;;;1.77;;
4686;SDS011;2357;47.316;-1.348;2022-08-27T10:00:46;5.90;;;1.60;;
4686;SDS011;2357;47.316;-1.348;2022-08-27T10:03:13;5.17;;;2.13;;
4686;SDS011;2357;47.316;-1.348;2022-08-27T10:05:45;4.30;;;1.43;;
4686;SDS011;2357;47.316;-1.348;2022-08-27T10:16:13;1.47;;;1.10;;
4686;SDS011;2357;47.316;-1.348;2022-08-27T10:27:26;3.57;;;1.77;;
4686;SDS011;2357;47.316;-1.348;2022-08-27T10:38:29;2.40;;;1.10;;
4686;SDS011;2357;47.316;-1.348;2022-08-27T10:41:13;4.93;;;1.63;;
4686;SDS011;2357;47.316;-1.348;2022-08-27T10:44:07;1.43;;;0.87;;
4686;SDS011;2357;47.316;-1.348;2022-08-27T10:47:13;1.63;;;0.97;;
4686;SDS011;2357;47.316;-1.348;2022-08-27T10:52:52;2.30;;;1.27;;
4686;SDS011;2357;47.316;-1.348;2022-08-27T10:55:31;1.50;;;1.20;;
4686;SDS011;2357;47.316;-1.348;2022-08-27T11:00:49;2.40;;;1.20;;
4686;SDS011;2357;47.316;-1.348;2022-08-27T11:03:36;1.53;;;0.93;;
4686;SDS011;2357;47.316;-1.348;2022-08-27T11:06:09;2.83;;;1.20;;
4686;SDS011;2357;47.316;-1.348;2022-08-27T11:08:56;2.63;;;0.80;;
4686;SDS011;2357;47.316;-1.348;2022-08-27T11:11:39;1.13;;;1.03;;
4686;SDS011;2357;47.316;-1.348;2022-08-27T11:14:21;10.53;;;2.07;;
4686;SDS011;2357;47.316;-1.348;2022-08-27T11:16:56;3.37;;;1.53;;
4686;SDS011;2357;47.316;-1.348;2022-08-27T11:19:30;1.40;;;1.30;;
4686;SDS011;2357;47.316;-1.348;2022-08-27T11:22:25;1.40;;;0.90;;
4686;SDS011;2357;47.316;-1.348;2022-08-27T11:27:24;1.27;;;1.00;;
4686;SDS011;2357;47.316;-1.348;2022-08-27T11:29:56;1.70;;;0.93;;
4686;SDS011;2357;47.316;-1.348;2022-08-27T11:43:14;1.93;;;1.00;;
4686;SDS011;2357;47.316;-1.348;2022-08-27T11:45:56;2.33;;;1.20;;
4686;SDS011;2357;47.316;-1.348;2022-08-27T11:48:31;5.70;;;0.93;;
4686;SDS011;2357;47.316;-1.348;2022-08-27T11:51:01;3.60;;;1.03;;
4686;SDS011;2357;47.316;-1.348;2022-08-27T11:53:37;1.05;;;0.95;;
4686;SDS011;2357;47.316;-1.348;2022-08-27T11:56:14;1.20;;;1.10;;
4686;SDS011;2357;47.316;-1.348;2022-08-27T11:59:19;2.20;;;1.20;;
4686;SDS011;2357;47.316;-1.348;2022-08-27T12:01:48;1.13;;;1.03;;
4686;SDS011;2357;47.316;-1.348;2022-08-27T12:04:36;3.67;;;1.27;;
4686;SDS011;2357;47.316;-1.348;2022-08-27T12:09:45;2.57;;;0.80;;
4686;SDS011;2357;47.316;-1.348;2022-08-27T12:12:28;3.60;;;1.53;;
4686;SDS011;2357;47.316;-1.348;2022-08-27T12:15:07;2.63;;;1.30;;
4686;SDS011;2357;47.316;-1.348;2022-08-27T12:17:44;1.50;;;1.40;;
4686;SDS011;2357;47.316;-1.348;2022-08-27T12:20:33;5.43;;;1.50;;
4686;SDS011;2357;47.316;-1.348;2022-08-27T12:25:59;0.90;;;0.90;;
4686;SDS011;2357;47.316;-1.348;2022-08-27T12:28:39;5.83;;;1.80;;
4686;SDS011;2357;47.316;-1.348;2022-08-27T12:31:05;1.17;;;1.10;;
4686;SDS011;2357;47.316;-1.348;2022-08-27T12:33:32;2.00;;;1.23;;
4686;SDS011;2357;47.316;-1.348;2022-08-27T12:36:09;0.80;;;0.80;;
4686;SDS011;2357;47.316;-1.348;2022-08-27T12:41:30;1.47;;;0.83;;
4686;SDS011;2357;47.316;-1.348;2022-08-27T12:44:08;2.40;;;1.33;;
4686;SDS011;2357;47.316;-1.348;2022-08-27T12:46:48;1.30;;;1.10;;
4686;SDS011;2357;47.316;-1.348;2022-08-27T12:49:22;8.00;;;1.87;;
4686;SDS011;2357;47.316;-1.348;2022-08-27T12:51:51;1.20;;;1.00;;
4686;SDS011;2357;47.316;-1.348;2022-08-27T12:57:08;0.90;;;0.90;;
4686;SDS011;2357;47.316;-1.348;2022-08-27T12:59:51;3.37;;;0.90;;
4686;SDS011;2357;47.316;-1.348;2022-08-27T13:04:49;0.93;;;0.90;;
4686;SDS011;2357;47.316;-1.348;2022-08-27T13:07:28;1.20;;;1.10;;
4686;SDS011;2357;47.316;-1.348;2022-08-27T13:10:06;1.57;;;0.90;;
4686;SDS011;2357;47.316;-1.348;2022-08-27T13:13:10;0.80;;;0.80;;
4686;SDS011;2357;47.316;-1.348;2022-08-27T13:15:55;2.97;;;1.20;;
4686;SDS011;2357;47.316;-1.348;2022-08-27T13:18:25;2.93;;;1.00;;
4686;SDS011;2357;47.316;-1.348;2022-08-27T13:20:59;2.80;;;0.90;;
4686;SDS011;2357;47.316;-1.348;2022-08-27T13:23:35;1.00;;;1.00;;
4686;SDS011;2357;47.316;-1.348;2022-08-27T13:26:08;1.00;;;1.00;;
4686;SDS011;2357;47.316;-1.348;2022-08-27T13:28:35;0.80;;;0.70;;
4686;SDS011;2357;47.316;-1.348;2022-08-27T13:31:04;1.10;;;0.90;;
4686;SDS011;2357;47.316;-1.348;2022-08-27T13:33:32;2.40;;;1.20;;
4686;SDS011;2357;47.316;-1.348;2022-08-27T13:35:59;1.83;;;1.10;;
4686;SDS011;2357;47.316;-1.348;2022-08-27T13:38:27;3.27;;;1.63;;
4686;SDS011;2357;47.316;-1.348;2022-08-27T13:40:59;1.37;;;0.80;;
4686;SDS011;2357;47.316;-1.348;2022-08-27T13:43:31;3.53;;;1.93;;
4686;SDS011;2357;47.316;-1.348;2022-08-27T13:45:57;1.00;;;0.90;;
4686;SDS011;2357;47.316;-1.348;2022-08-27T13:48:24;1.47;;;1.13;;
4686;SDS011;2357;47.316;-1.348;2022-08-27T13:50:51;3.17;;;0.77;;
4686;SDS011;2357;47.316;-1.348;2022-08-27T13:53:20;3.63;;;0.97;;
4686;SDS011;2357;47.316;-1.348;2022-08-27T13:56:10;2.50;;;0.87;;
4686;SDS011;2357;47.316;-1.348;2022-08-27T13:58:46;1.30;;;1.20;;
4686;SDS011;2357;47.316;-1.348;2022-08-27T14:01:14;1.10;;;1.00;;
4686;SDS011;2357;47.316;-1.348;2022-08-27T14:03:54;7.33;;;0.97;;
4686;SDS011;2357;47.316;-1.348;2022-08-27T14:09:23;0.87;;;0.87;;
4686;SDS011;2357;47.316;-1.348;2022-08-27T14:12:00;4.30;;;0.80;;
4686;SDS011;2357;47.316;-1.348;2022-08-27T14:14:35;2.00;;;0.93;;
4686;SDS011;2357;47.316;-1.348;2022-08-27T14:17:04;0.80;;;0.80;;
4686;SDS011;2357;47.316;-1.348;2022-08-27T14:19:33;3.20;;;1.13;;
4686;SDS011;2357;47.316;-1.348;2022-08-27T14:21:59;1.17;;;1.00;;
4686;SDS011;2357;47.316;-1.348;2022-08-27T14:24:25;1.40;;;0.60;;
4686;SDS011;2357;47.316;-1.348;2022-08-27T14:26:53;2.33;;;1.00;;
4686;SDS011;2357;47.316;-1.348;2022-08-27T14:29:27;1.13;;;1.00;;
4686;SDS011;2357;47.316;-1.348;2022-08-27T14:31:53;2.23;;;0.90;;
4686;SDS011;2357;47.316;-1.348;2022-08-27T14:34:18;2.67;;;1.17;;
4686;SDS011;2357;47.316;-1.348;2022-08-27T14:36:44;1.30;;;1.30;;
4686;SDS011;2357;47.316;-1.348;2022-08-27T14:39:10;0.90;;;0.67;;
4686;SDS011;2357;47.316;-1.348;2022-08-27T14:41:37;1.10;;;1.00;;
4686;SDS011;2357;47.316;-1.348;2022-08-27T14:44:03;1.17;;;0.80;;
4686;SDS011;2357;47.316;-1.348;2022-08-27T14:46:30;2.00;;;0.87;;
4686;SDS011;2357;47.316;-1.348;2022-08-27T14:48:59;0.87;;;0.87;;
4686;SDS011;2357;47.316;-1.348;2022-08-27T14:51:29;0.90;;;0.90;;
4686;SDS011;2357;47.316;-1.348;2022-08-27T14:53:56;1.07;;;0.73;;
4686;SDS011;2357;47.316;-1.348;2022-08-27T14:56:23;2.30;;;0.80;;
4686;SDS011;2357;47.316;-1.348;2022-08-27T14:58:50;0.80;;;0.80;;
4686;SDS011;2357;47.316;-1.348;2022-08-27T15:01:17;1.00;;;0.90;;
4686;SDS011;2357;47.316;-1.348;2022-08-27T15:03:49;4.83;;;0.70;;
4686;SDS011;2357;47.316;-1.348;2022-08-27T15:06:15;4.33;;;1.13;;
4686;SDS011;2357;47.316;-1.348;2022-08-27T15:08:43;2.50;;;0.80;;
4686;SDS011;2357;47.316;-1.348;2022-08-27T15:11:11;1.05;;;0.95;;
4686;SDS011;2357;47.316;-1.348;2022-08-27T15:13:59;1.03;;;0.83;;
4686;SDS011;2357;47.316;-1.348;2022-08-27T15:16:28;0.70;;;0.70;;
4686;SDS011;2357;47.316;-1.348;2022-08-27T15:18:56;1.13;;;0.83;;
4686;SDS011;2357;47.316;-1.348;2022-08-27T15:21:23;0.70;;;0.70;;
4686;SDS011;2357;47.316;-1.348;2022-08-27T15:23:50;2.30;;;1.03;;
4686;SDS011;2357;47.316;-1.348;2022-08-27T15:26:22;0.70;;;0.70;;
4686;SDS011;2357;47.316;-1.348;2022-08-27T15:28:47;0.70;;;0.70;;
4686;SDS011;2357;47.316;-1.348;2022-08-27T15:31:13;3.90;;;0.73;;
4686;SDS011;2357;47.316;-1.348;2022-08-27T15:33:38;1.53;;;0.70;;
4686;SDS011;2357;47.316;-1.348;2022-08-27T15:36:04;1.43;;;0.97;;
4686;SDS011;2357;47.316;-1.348;2022-08-27T15:38:30;0.70;;;0.70;;
4686;SDS011;2357;47.316;-1.348;2022-08-27T15:40:56;1.00;;;1.00;;
4686;SDS011;2357;47.316;-1.348;2022-08-27T15:43:21;1.20;;;0.90;;
4686;SDS011;2357;47.316;-1.348;2022-08-27T15:45:49;1.33;;;0.80;;
4686;SDS011;2357;47.316;-1.348;2022-08-27T15:48:14;2.70;;;0.90;;
4686;SDS011;2357;47.316;-1.348;2022-08-27T15:50:40;0.90;;;0.90;;
4686;SDS011;2357;47.316;-1.348;2022-08-27T15:53:06;0.90;;;0.90;;
4686;SDS011;2357;47.316;-1.348;2022-08-27T15:55:35;0.80;;;0.80;;
4686;SDS011;2357;47.316;-1.348;2022-08-27T15:58:04;1.10;;;0.83;;
4686;SDS011;2357;47.316;-1.348;2022-08-27T16:00:31;1.00;;;0.90;;
4686;SDS011;2357;47.316;-1.348;2022-08-27T16:02:58;1.20;;;1.10;;
4686;SDS011;2357;47.316;-1.348;2022-08-27T16:05:25;1.53;;;0.70;;
4686;SDS011;2357;47.316;-1.348;2022-08-27T16:07:55;5.23;;;1.00;;
4686;SDS011;2357;47.316;-1.348;2022-08-27T16:10:21;1.20;;;0.73;;
4686;SDS011;2357;47.316;-1.348;2022-08-27T16:12:46;0.87;;;0.87;;
4686;SDS011;2357;47.316;-1.348;2022-08-27T16:15:12;8.43;;;1.20;;
4686;SDS011;2357;47.316;-1.348;2022-08-27T16:17:38;1.90;;;1.10;;
4686;SDS011;2357;47.316;-1.348;2022-08-27T16:20:05;3.73;;;1.30;;
4686;SDS011;2357;47.316;-1.348;2022-08-27T16:22:33;2.20;;;0.70;;
4686;SDS011;2357;47.316;-1.348;2022-08-27T16:24:59;2.17;;;0.73;;
4686;SDS011;2357;47.316;-1.348;2022-08-27T16:27:25;0.70;;;0.70;;
4686;SDS011;2357;47.316;-1.348;2022-08-27T16:29:51;0.90;;;0.90;;
4686;SDS011;2357;47.316;-1.348;2022-08-27T16:32:17;11.20;;;0.80;;
4686;SDS011;2357;47.316;-1.348;2022-08-27T16:34:45;1.40;;;1.00;;